Raeren, Belgium
Current Conditions -  °F | °C
As of 4:25 PM on Sunday 23 Nov 2014 (Local Time) from EBLB Reporting Station
Clear Clear  
Wind Chill: 54°   Ceiling: Unl
Heat Index: 54°   Visibility: 6mi
Dew Point: 46°   Wind: 9mph
Humidity: 77%   Direction: 180°S
Pressure: 30"   Gusts: NA
Location:  50.67°N, 6.12°E
Report Text: EBLB 231525Z AUTO 18008KT 9999 NCD 12/08 Q1016 BLU
Loading
Personal Weather Stations






























Interactive Weather Map New forecast layout! Learn more

10-Day Weather Forecast

Advertisements
Track Severe Weather on mobile